Terminal Aerodrome Forecast
Issued by NWS

Current Version | Previous Version | Graphics & Text | Print | Product List | Glossary On
Versions: 1 2 3 4 5 6 7 8 9 10 11 12 13 14 15 16 17 18 19 20 21 22 23 24 25 26 27 28
000
FTUS41 KPBZ 110520
TAFHLG
TAF
KHLG 110520Z 1106/1206 26013G19KT P6SM SCT018 BKN026 OVC070
      TEMPO 1107/1109 5SM -SHSN BKN018
     FM111100 29010G20KT 6SM -SHSN OVC025
     FM111300 30012G20KT P6SM BKN030=

USA.gov is the U.S. government's official web portal to all federal, state and local government web resources and services.